Time;durP1;ratioP1;P1;durP2;ratioP2;P2;SDS_P1;SDS_P2;PMS_P1;PMS_P2;Temp;Humidity;BMP_temperature;BMP_pressure;BME280_temperature;BME280_humidity;BME280_pressure;Samples;Min_cycle;Max_cycle;Signal;HPM_P1;HPM_P2
2021/01/29 00:04:28;;;;;;;26.40;11.70;;;;;;;4.40;81.46;99068.19;8477667;33;20654;-72
2021/01/29 00:09:30;;;;;;;33.50;13.00;;;;;;;4.42;81.72;99061.00;8478198;33;20894;-72
2021/01/29 00:14:34;;;;;;;25.47;11.90;;;;;;;4.46;81.69;99060.72;8476431;33;20147;-72
2021/01/29 00:19:37;;;;;;;28.17;12.63;;;;;;;4.42;81.78;99043.34;8477403;33;20136;-71
2021/01/29 00:24:40;;;;;;;31.50;12.93;;;;;;;4.35;81.67;99038.53;8476785;33;20615;-72
2021/01/29 00:29:42;;;;;;;27.73;11.87;;;;;;;4.51;81.67;99036.63;8483533;33;20423;-71
2021/01/29 00:34:45;;;;;;;28.23;12.80;;;;;;;4.44;81.49;99022.94;8485543;33;20192;-71
2021/01/29 00:39:48;;;;;;;28.57;11.93;;;;;;;4.42;81.47;99008.97;8487336;33;20188;-72
2021/01/29 00:44:50;;;;;;;30.20;11.87;;;;;;;4.43;81.63;99000.06;8482327;33;20141;-71
2021/01/29 00:49:54;;;;;;;26.90;12.27;;;;;;;4.58;81.82;99002.69;8482173;33;21215;-71
2021/01/29 00:54:56;;;;;;;28.80;12.20;;;;;;;4.60;81.82;98985.78;8482760;33;20328;-71
2021/01/29 00:59:59;;;;;;;23.97;10.50;;;;;;;4.67;81.38;98983.59;8481038;33;20462;-71
2021/01/29 01:05:15;;;;;;;24.07;10.73;;;;;;;4.69;81.35;98979.06;8481590;33;20634;-71
2021/01/29 01:10:19;;;;;;;23.93;10.63;;;;;;;4.70;81.43;98974.63;8481295;33;20432;-72
2021/01/29 01:15:42;;;;;;;22.97;9.60;;;;;;;4.72;81.62;98955.03;8481092;33;20401;-71
2021/01/29 01:20:45;;;;;;;19.05;9.10;;;;;;;4.84;81.67;98941.00;8481669;33;20156;-71
2021/01/29 01:25:48;;;;;;;18.93;9.60;;;;;;;4.86;81.34;98925.88;8480029;33;20200;-72
2021/01/29 01:31:02;;;;;;;19.73;9.17;;;;;;;4.91;81.94;98901.75;8484860;33;20436;-71
2021/01/29 01:36:13;;;;;;;16.33;8.97;;;;;;;4.87;81.46;98885.22;8480384;33;20430;-71
2021/01/29 01:41:21;;;;;;;15.40;7.97;;;;;;;4.88;81.74;98883.41;8477559;33;20427;-71
2021/01/29 01:46:30;;;;;;;19.45;8.75;;;;;;;4.88;81.43;98873.69;8475537;33;20455;-72
2021/01/29 01:52:06;;;;;;;16.20;7.80;;;;;;;4.92;81.10;98861.09;8478320;33;20278;-71
2021/01/29 01:57:31;;;;;;;17.20;8.10;;;;;;;4.92;81.27;98834.63;8480313;33;20900;-71
2021/01/29 02:02:57;;;;;;;14.87;7.57;;;;;;;4.93;81.30;98830.19;8479178;33;20570;-72
2021/01/29 02:08:39;;;;;;;15.03;7.83;;;;;;;4.84;81.27;98827.22;8472552;33;20406;-72
2021/01/29 02:14:00;;;;;;;14.17;7.07;;;;;;;4.89;80.78;98800.44;8481365;33;20431;-71
2021/01/29 02:19:56;;;;;;;15.77;7.20;;;;;;;5.02;80.90;98779.25;8477837;33;20447;-71
2021/01/29 02:25:52;;;;;;;13.50;6.97;;;;;;;5.00;81.06;98767.94;8459955;33;21583;-71
2021/01/29 02:31:33;;;;;;;11.83;6.20;;;;;;;5.01;80.91;98737.88;8476753;33;20837;-71
2021/01/29 02:37:27;;;;;;;16.37;8.20;;;;;;;5.03;80.86;98707.69;8485127;33;20479;-72
2021/01/29 02:43:05;;;;;;;14.80;7.03;;;;;;;5.00;81.13;98710.56;8478171;33;20267;-72
2021/01/29 02:48:54;;;;;;;12.13;5.93;;;;;;;5.05;81.11;98692.56;8472448;33;20495;-71
2021/01/29 02:54:09;;;;;;;11.00;6.00;;;;;;;5.11;80.85;98689.47;8480007;33;21486;-72
2021/01/29 02:59:37;;;;;;;11.07;6.47;;;;;;;4.90;80.88;98683.88;8477619;33;20507;-71
2021/01/29 03:05:20;;;;;;;11.57;5.50;;;;;;;4.99;80.89;98660.38;8482459;33;20665;-72
2021/01/29 03:10:34;;;;;;;12.67;6.13;;;;;;;5.01;80.50;98646.06;8484858;33;20472;-72
2021/01/29 03:16:05;;;;;;;9.83;5.33;;;;;;;4.98;80.61;98630.44;8483891;33;20506;-71
2021/01/29 03:21:38;;;;;;;12.23;6.30;;;;;;;4.94;80.94;98620.16;8473753;33;20553;-71
2021/01/29 03:27:04;;;;;;;11.57;6.73;;;;;;;4.94;80.61;98613.09;8486788;33;20153;-71
2021/01/29 03:32:29;;;;;;;15.70;7.73;;;;;;;4.97;80.88;98594.34;8489668;33;20199;-72
2021/01/29 03:37:58;;;;;;;13.23;7.00;;;;;;;4.94;80.95;98581.34;8487005;33;21210;-71
2021/01/29 03:43:33;;;;;;;10.97;6.37;;;;;;;5.03;80.87;98569.22;8485685;33;20831;-72
2021/01/29 03:49:16;;;;;;;12.77;6.73;;;;;;;5.06;80.53;98553.97;8484270;33;20499;-72
2021/01/29 03:55:02;;;;;;;15.57;7.60;;;;;;;5.05;80.96;98541.69;8483865;33;21637;-72
2021/01/29 04:00:36;;;;;;;13.97;6.93;;;;;;;5.11;80.89;98522.72;8484170;33;20576;-71
2021/01/29 04:06:13;;;;;;;15.37;7.60;;;;;;;5.03;80.98;98516.28;8485817;33;20429;-71
2021/01/29 04:11:41;;;;;;;14.63;8.27;;;;;;;5.00;80.72;98493.53;8484389;33;21505;-72
2021/01/29 04:17:10;;;;;;;15.90;7.57;;;;;;;5.10;80.76;98491.03;8484743;33;20461;-72
2021/01/29 04:22:20;;;;;;;15.00;8.10;;;;;;;5.00;80.15;98475.03;8483828;33;20565;-72
2021/01/29 04:27:30;;;;;;;16.30;8.30;;;;;;;4.96;81.21;98460.31;8484099;33;20369;-72
2021/01/29 04:32:38;;;;;;;17.33;8.50;;;;;;;4.93;81.07;98455.25;8489882;33;20415;-72
2021/01/29 04:37:52;;;;;;;21.10;8.73;;;;;;;4.94;81.11;98445.50;8492790;33;20180;-72
2021/01/29 04:43:10;;;;;;;19.80;8.40;;;;;;;4.94;81.08;98441.09;8489377;33;20556;-72
2021/01/29 04:48:20;;;;;;;15.57;8.07;;;;;;;5.00;81.09;98432.69;8481846;33;20431;-72
2021/01/29 04:54:19;;;;;;;12.90;7.17;;;;;;;5.14;80.96;98410.47;8482695;33;20188;-72
2021/01/29 04:59:45;;;;;;;13.53;7.67;;;;;;;5.08;81.16;98400.34;8478594;33;20478;-73
2021/01/29 05:05:32;;;;;;;17.73;8.57;;;;;;;4.94;81.46;98390.81;8485053;33;20949;-73
2021/01/29 05:11:22;;;;;;;15.63;8.13;;;;;;;4.97;87.33;98372.03;8487266;33;20611;-73
2021/01/29 05:17:19;;;;;;;17.20;7.80;;;;;;;4.96;82.40;98365.06;8486294;33;20192;-72
2021/01/29 05:22:41;;;;;;;15.77;8.30;;;;;;;4.97;82.18;98339.47;8499455;33;20830;-73
2021/01/29 05:28:21;;;;;;;16.30;8.87;;;;;;;4.94;82.17;98332.59;8488828;33;20176;-73
2021/01/29 05:33:37;;;;;;;15.80;7.33;;;;;;;4.88;82.07;98310.09;8419945;33;20465;-73
2021/01/29 05:39:00;;;;;;;14.47;7.70;;;;;;;5.02;82.03;98305.50;8496768;33;20576;-73
2021/01/29 05:44:33;;;;;;;14.60;7.43;;;;;;;5.03;81.97;98292.19;8506539;33;20535;-73
2021/01/29 05:49:51;;;;;;;16.20;8.40;;;;;;;4.94;82.25;98276.16;8501086;33;20246;-73
2021/01/29 05:55:26;;;;;;;15.57;7.57;;;;;;;5.07;82.04;98264.53;8490764;33;20501;-73
2021/01/29 06:00:55;;;;;;;18.33;8.00;;;;;;;4.99;82.16;98252.84;8493478;33;20454;-72
2021/01/29 06:06:32;;;;;;;17.83;7.57;;;;;;;5.12;81.96;98243.81;8493497;33;20380;-72
2021/01/29 06:11:48;;;;;;;14.50;7.50;;;;;;;5.07;82.20;98221.31;8451423;33;20409;-72
2021/01/29 06:17:23;;;;;;;14.73;7.80;;;;;;;5.16;81.94;98219.78;8507425;33;21000;-72
2021/01/29 06:22:56;;;;;;;15.23;6.97;;;;;;;5.07;82.10;98206.31;8507316;33;21905;-73
2021/01/29 06:28:50;;;;;;;19.67;7.50;;;;;;;5.05;82.92;98191.50;8505818;33;20475;-73
2021/01/29 06:34:26;;;;;;;14.53;6.83;;;;;;;5.11;82.94;98183.91;8459731;33;20149;-73
2021/01/29 06:39:45;;;;;;;13.33;7.90;;;;;;;5.11;82.54;98170.69;8496291;33;20613;-73
2021/01/29 06:45:09;;;;;;;16.20;7.00;;;;;;;5.19;81.86;98162.13;8493814;33;20423;-72
2021/01/29 06:50:32;;;;;;;13.53;6.83;;;;;;;5.10;82.22;98165.50;8504385;33;20183;-73
2021/01/29 06:55:52;;;;;;;15.10;7.93;;;;;;;5.12;82.55;98155.63;8503272;33;20190;-72
2021/01/29 07:01:43;;;;;;;14.77;6.70;;;;;;;5.06;82.72;98148.19;8508256;33;20428;-73
2021/01/29 07:07:02;;;;;;;12.93;6.63;;;;;;;5.08;82.68;98139.16;8486484;33;20535;-73
2021/01/29 07:12:29;;;;;;;11.77;6.83;;;;;;;5.12;83.08;98134.47;8508488;33;20412;-73
2021/01/29 07:18:03;;;;;;;13.37;6.13;;;;;;;5.19;82.73;98134.81;8504052;33;21654;-72
2021/01/29 07:23:49;;;;;;;15.60;6.60;;;;;;;5.23;82.62;98131.78;8506107;33;21273;-73
2021/01/29 07:29:06;;;;;;;13.00;6.07;;;;;;;5.25;82.27;98127.22;8501836;33;20228;-73
2021/01/29 07:34:26;;;;;;;13.30;7.23;;;;;;;5.28;82.73;98131.44;8510410;33;20503;-72
2021/01/29 07:39:50;;;;;;;12.43;6.10;;;;;;;5.30;83.31;98134.78;8511405;33;21283;-72
2021/01/29 07:45:05;;;;;;;11.40;5.73;;;;;;;5.33;83.37;98124.78;8531432;33;20375;-72
2021/01/29 07:50:24;;;;;;;12.47;6.00;;;;;;;5.27;83.10;98116.53;8518106;33;20194;-72
2021/01/29 07:55:33;;;;;;;12.37;5.83;;;;;;;5.35;83.00;98116.75;8506414;33;20897;-72
2021/01/29 08:00:52;;;;;;;12.13;6.43;;;;;;;5.25;83.60;98113.97;8506488;33;20144;-72
2021/01/29 08:06:03;;;;;;;9.82;5.35;;;;;;;5.31;83.52;98113.47;8507961;33;21038;-73
2021/01/29 08:11:09;;;;;;;10.53;5.47;;;;;;;5.28;84.06;98111.09;8509192;33;20626;-73
2021/01/29 08:16:48;;;;;;;12.00;5.23;;;;;;;5.37;83.33;98114.78;8543358;33;20446;-73
2021/01/29 08:22:28;;;;;;;11.00;5.33;;;;;;;5.44;83.44;98112.50;8548019;33;21053;-73
2021/01/29 08:28:12;;;;;;;8.07;5.30;;;;;;;5.38;83.22;98110.34;8554111;33;20513;-74
2021/01/29 08:34:14;;;;;;;8.40;4.80;;;;;;;5.62;83.95;98116.25;8522487;33;20513;-73
2021/01/29 08:39:25;;;;;;;9.55;5.05;;;;;;;5.89;83.64;98120.22;8397527;33;20456;-74
2021/01/29 08:44:55;;;;;;;12.80;6.13;;;;;;;5.99;83.45;98121.19;8502101;33;20148;-73
2021/01/29 08:50:20;;;;;;;8.98;6.80;;;;;;;5.97;83.37;98118.66;8457404;33;20253;-73
2021/01/29 08:55:41;;;;;;;11.68;5.47;;;;;;;5.73;83.32;98110.94;8430856;33;21668;-74
2021/01/29 09:00:45;;;;;;;6.60;4.30;;;;;;;5.77;83.12;98100.91;8432447;33;20679;-73
2021/01/29 09:05:51;;;;;;;10.05;5.30;;;;;;;5.81;83.37;98102.31;8430069;33;20958;-73
2021/01/29 09:11:06;;;;;;;10.00;5.43;;;;;;;5.90;83.42;98098.09;8452784;33;20555;-73
2021/01/29 09:16:18;;;;;;;10.38;5.07;;;;;;;5.89;83.37;98091.09;8491504;33;20409;-73
2021/01/29 09:21:32;;;;;;;9.27;4.88;;;;;;;5.78;83.31;98097.28;8500293;33;20292;-74
2021/01/29 09:26:40;;;;;;;7.43;4.67;;;;;;;5.74;83.39;98109.97;8500833;33;20718;-73
2021/01/29 09:31:55;;;;;;;8.05;4.35;;;;;;;5.78;83.39;98099.94;8498863;33;20455;-73
2021/01/29 09:37:05;;;;;;;8.90;4.57;;;;;;;5.80;83.36;98104.13;8477944;33;21772;-75
2021/01/29 09:42:47;;;;;;;9.70;4.90;;;;;;;5.81;83.24;98110.28;8504291;33;20740;-74
2021/01/29 09:48:01;;;;;;;10.97;4.73;;;;;;;5.89;83.08;98109.63;8501959;33;20238;-74
2021/01/29 09:53:21;;;;;;;9.53;4.87;;;;;;;5.97;83.28;98123.13;8501838;33;20445;-74
2021/01/29 09:58:34;;;;;;;6.88;4.25;;;;;;;6.03;83.37;98127.06;8485306;33;20141;-75
2021/01/29 10:03:51;;;;;;;7.68;4.25;;;;;;;6.00;83.16;98129.00;8494808;33;20189;-74
2021/01/29 10:08:58;;;;;;;8.53;3.93;;;;;;;6.05;83.38;98141.88;8426170;33;20514;-75
2021/01/29 10:14:06;;;;;;;6.82;4.53;;;;;;;6.15;83.61;98144.59;8425244;33;21401;-73
2021/01/29 10:19:31;;;;;;;8.23;4.45;;;;;;;6.23;83.47;98129.72;8421561;33;20449;-74
2021/01/29 10:24:41;;;;;;;8.83;4.30;;;;;;;6.22;83.61;98116.56;8425267;33;20197;-73
2021/01/29 10:29:48;;;;;;;9.00;4.40;;;;;;;6.07;83.63;98116.06;8426564;33;20547;-74
2021/01/29 10:35:02;;;;;;;7.63;4.10;;;;;;;6.11;83.38;98121.94;8422917;33;20878;-73
2021/01/29 10:40:21;;;;;;;7.22;3.97;;;;;;;6.17;83.63;98124.06;8421482;33;21489;-74
2021/01/29 10:45:36;;;;;;;7.97;4.38;;;;;;;6.14;83.52;98132.28;8448672;33;20138;-74
2021/01/29 10:50:54;;;;;;;6.72;3.92;;;;;;;6.24;83.58;98136.69;8428956;33;20492;-74
2021/01/29 10:56:00;;;;;;;8.95;4.13;;;;;;;6.35;83.61;98142.91;8427223;33;20855;-74
2021/01/29 11:01:08;;;;;;;7.68;4.13;;;;;;;6.40;83.73;98140.69;8427848;33;20424;-74
2021/01/29 11:06:16;;;;;;;5.22;3.58;;;;;;;6.48;83.78;98111.72;8424999;33;20434;-74
2021/01/29 11:11:26;;;;;;;7.05;4.15;;;;;;;6.60;83.78;98128.38;8421922;33;20702;-74
2021/01/29 11:16:40;;;;;;;9.25;4.80;;;;;;;6.76;84.00;98112.81;8421830;33;20473;-74
2021/01/29 11:21:55;;;;;;;12.60;5.27;;;;;;;6.92;83.77;98117.63;8425643;33;20444;-73
2021/01/29 11:27:17;;;;;;;12.07;5.50;;;;;;;7.01;83.63;98111.47;8425564;33;20792;-73
2021/01/29 11:32:32;;;;;;;12.27;7.18;;;;;;;7.08;83.50;98109.13;8426847;33;20637;-74
2021/01/29 11:38:03;;;;;;;14.80;7.30;;;;;;;7.23;83.66;98106.94;8420904;33;21921;-73
2021/01/29 11:43:13;;;;;;;10.30;5.90;;;;;;;7.34;84.03;98110.28;8416538;33;22328;-73
2021/01/29 11:48:22;;;;;;;9.05;5.38;;;;;;;7.67;84.99;98112.69;8420395;33;20545;-73
2021/01/29 11:53:34;;;;;;;10.95;5.35;;;;;;;7.93;84.89;98123.63;8421492;33;20443;-73
2021/01/29 11:58:45;;;;;;;8.40;5.78;;;;;;;8.10;85.23;98111.44;8422471;33;20810;-73
2021/01/29 12:03:53;;;;;;;6.13;3.33;;;;;;;8.27;86.15;98118.66;8424071;33;20740;-73
2021/01/29 12:09:05;;;;;;;7.90;4.10;;;;;;;8.53;87.35;98102.97;8419224;33;20808;-73
2021/01/29 12:14:29;;;;;;;3.83;2.67;;;;;;;9.07;86.43;98106.63;8409777;33;20565;-73
2021/01/29 12:19:36;;;;;;;6.93;3.63;;;;;;;9.05;86.81;98097.09;8419478;33;20240;-73
2021/01/29 12:24:55;;;;;;;7.32;3.20;;;;;;;9.24;87.02;98110.34;8422941;33;20373;-73
2021/01/29 12:30:04;;;;;;;4.28;2.53;;;;;;;9.32;86.52;98091.78;8445513;33;20509;-74
2021/01/29 12:35:16;;;;;;;6.45;3.47;;;;;;;9.29;87.16;98128.50;8428547;33;20521;-73
2021/01/29 12:40:34;;;;;;;4.82;2.83;;;;;;;9.46;86.35;98114.41;8477510;33;20773;-73
2021/01/29 12:45:42;;;;;;;5.57;2.95;;;;;;;9.45;86.60;98119.88;8463889;33;20897;-71
2021/01/29 12:50:59;;;;;;;5.20;2.45;;;;;;;9.46;86.46;98100.22;8467051;33;20875;-71
2021/01/29 12:56:24;;;;;;;5.82;2.67;;;;;;;9.35;87.21;98111.91;8433294;33;20672;-71
2021/01/29 13:01:51;;;;;;;4.80;2.55;;;;;;;9.34;86.69;98119.09;8413779;33;21637;-71
2021/01/29 13:07:06;;;;;;;7.20;3.40;;;;;;;9.40;86.52;98138.97;8413214;33;20417;-71
2021/01/29 13:12:25;;;;;;;11.25;3.83;;;;;;;9.44;86.11;98128.84;8412393;33;20674;-71
2021/01/29 13:17:32;;;;;;;7.57;3.53;;;;;;;9.56;85.92;98136.47;8433088;33;20461;-71
2021/01/29 13:22:42;;;;;;;10.50;3.67;;;;;;;9.45;86.30;98138.53;8414919;33;20440;-71
2021/01/29 13:27:54;;;;;;;13.30;3.95;;;;;;;9.39;85.00;98115.97;8415472;33;21017;-71
2021/01/29 13:33:02;;;;;;;16.25;4.18;;;;;;;9.58;84.37;98115.00;8415237;33;20319;-71
2021/01/29 13:38:12;;;;;;;13.38;3.72;;;;;;;9.67;84.24;98140.75;8415902;33;20443;-71
2021/01/29 13:43:27;;;;;;;15.20;4.68;;;;;;;9.69;83.42;98157.44;8417899;33;20451;-71
2021/01/29 13:48:30;;;;;;;19.60;5.15;;;;;;;9.50;84.34;98149.56;8417816;33;20255;-71
2021/01/29 13:53:38;;;;;;;18.58;5.57;;;;;;;9.54;83.77;98156.25;8423385;33;20146;-71
2021/01/29 13:58:49;;;;;;;16.30;5.00;;;;;;;9.45;83.35;98151.84;8429155;33;20189;-71
2021/01/29 14:03:59;;;;;;;12.85;4.35;;;;;;;9.46;83.91;98151.72;8429861;33;20181;-71
2021/01/29 14:09:12;;;;;;;21.77;5.18;;;;;;;9.53;83.28;98162.59;8441607;33;20666;-70
2021/01/29 14:14:23;;;;;;;7.30;3.10;;;;;;;9.58;83.28;98165.66;8446102;33;20227;-70
2021/01/29 14:19:45;;;;;;;11.30;3.63;;;;;;;9.62;82.88;98151.03;8448556;33;20408;-70
2021/01/29 14:25:25;;;;;;;13.45;5.45;;;;;;;9.78;82.11;98153.84;8448935;33;20460;-70
2021/01/29 14:30:44;;;;;;;15.77;4.63;;;;;;;9.90;81.74;98161.63;8419646;33;20153;-71
2021/01/29 14:36:12;;;;;;;6.65;3.42;;;;;;;9.71;81.57;98162.63;8453330;33;20592;-70
2021/01/29 14:41:21;;;;;;;7.78;2.97;;;;;;;9.84;81.41;98155.06;8448710;33;20457;-71
2021/01/29 14:46:44;;;;;;;10.52;4.85;;;;;;;9.91;81.22;98165.97;8454654;33;20178;-71
2021/01/29 14:51:53;;;;;;;20.75;4.63;;;;;;;9.91;81.24;98163.31;8475717;33;20156;-71
2021/01/29 14:57:03;;;;;;;18.02;5.07;;;;;;;9.80;81.01;98167.88;8447438;33;20705;-71
2021/01/29 15:02:15;;;;;;;19.55;5.05;;;;;;;9.88;81.77;98164.47;8449482;33;20435;-71
2021/01/29 15:07:22;;;;;;;13.57;4.22;;;;;;;9.98;81.18;98173.22;8443208;33;20547;-71
2021/01/29 15:12:27;;;;;;;15.57;4.18;;;;;;;10.11;80.42;98178.16;8436003;33;21211;-72
2021/01/29 15:17:35;;;;;;;10.25;3.78;;;;;;;9.93;79.64;98158.69;8456246;33;20462;-71
2021/01/29 15:22:37;;;;;;;10.18;4.07;;;;;;;10.25;79.30;98190.94;8444015;33;21966;-71
2021/01/29 15:27:40;;;;;;;14.05;3.78;;;;;;;10.30;78.93;98184.34;8447150;33;20882;-71
2021/01/29 15:32:46;;;;;;;14.57;3.88;;;;;;;10.36;78.21;98176.56;8474621;33;20266;-71
2021/01/29 15:38:13;;;;;;;13.73;3.88;;;;;;;10.34;77.96;98188.38;8504383;33;20188;-72
2021/01/29 15:43:50;;;;;;;9.40;3.38;;;;;;;10.33;78.17;98194.72;8525499;33;20219;-71
2021/01/29 15:49:04;;;;;;;9.57;2.58;;;;;;;10.30;77.41;98195.88;8506929;33;20555;-72
2021/01/29 15:54:13;;;;;;;9.38;2.75;;;;;;;10.26;77.92;98197.16;8499151;33;20468;-71
2021/01/29 15:59:20;;;;;;;8.90;2.40;;;;;;;10.17;76.91;98198.88;8510480;33;20434;-72
2021/01/29 16:04:37;;;;;;;9.90;2.90;;;;;;;10.19;77.03;98206.75;8516668;33;20149;-72
2021/01/29 16:09:43;;;;;;;6.78;1.98;;;;;;;10.11;76.64;98231.50;8518836;33;20430;-71
2021/01/29 16:14:45;;;;;;;5.05;2.38;;;;;;;10.13;76.64;98231.38;8520282;33;20161;-71
2021/01/29 16:19:49;;;;;;;9.50;3.38;;;;;;;10.12;76.30;98221.69;8515702;33;20393;-72
2021/01/29 16:24:52;;;;;;;7.15;2.40;;;;;;;10.23;75.99;98227.66;8513443;33;20239;-72
2021/01/29 16:29:57;;;;;;;11.73;3.47;;;;;;;10.31;76.27;98218.03;8507599;33;20525;-72
2021/01/29 16:35:11;;;;;;;10.68;3.63;;;;;;;10.12;75.41;98219.00;8513652;33;20444;-72
2021/01/29 16:40:19;;;;;;;15.40;3.38;;;;;;;10.13;75.86;98228.72;8513880;33;20420;-72
2021/01/29 16:45:42;;;;;;;8.05;3.00;;;;;;;9.99;76.16;98222.91;8513590;33;20187;-72
2021/01/29 16:50:48;;;;;;;5.70;2.42;;;;;;;10.18;75.70;98229.94;8515896;33;20133;-72
2021/01/29 16:56:04;;;;;;;6.65;2.28;;;;;;;10.05;76.41;98228.63;8513473;33;20508;-72
2021/01/29 17:01:10;;;;;;;10.80;3.17;;;;;;;10.09;76.35;98229.97;8508843;33;20420;-72
2021/01/29 17:06:21;;;;;;;7.57;3.28;;;;;;;10.10;76.34;98227.19;8504835;33;20418;-72
2021/01/29 17:11:32;;;;;;;10.07;3.58;;;;;;;9.97;76.83;98227.53;8513532;33;20543;-73
2021/01/29 17:16:34;;;;;;;9.00;2.22;;;;;;;9.89;76.79;98239.97;8504267;33;21000;-71
2021/01/29 17:21:43;;;;;;;11.65;2.70;;;;;;;9.64;77.68;98233.53;8503531;33;21641;-72
2021/01/29 17:26:49;;;;;;;6.30;2.63;;;;;;;9.85;76.97;98236.75;8507308;33;21017;-72
2021/01/29 17:31:59;;;;;;;9.95;2.85;;;;;;;9.86;77.06;98237.59;8506319;33;20551;-72
2021/01/29 17:37:24;;;;;;;8.35;3.00;;;;;;;9.76;77.04;98250.97;8506121;33;21231;-72
2021/01/29 17:42:39;;;;;;;7.57;3.22;;;;;;;9.27;78.65;98253.91;8509976;33;20562;-72
2021/01/29 17:47:44;;;;;;;10.23;3.45;;;;;;;9.58;77.39;98267.78;8505203;33;20463;-73
2021/01/29 17:52:49;;;;;;;7.57;2.83;;;;;;;9.83;76.74;98273.41;8505817;33;20279;-72
2021/01/29 17:58:23;;;;;;;8.95;3.22;;;;;;;9.38;78.19;98274.19;8505743;33;20173;-72
2021/01/29 18:10:57;;;;;;;8.93;3.45;;;;;;;9.14;81.42;98296.00;8499355;33;20456;-72
2021/01/29 18:16:06;;;;;;;9.43;3.95;;;;;;;9.13;82.10;98292.50;8499505;33;20191;-72
2021/01/29 18:21:17;;;;;;;12.07;4.18;;;;;;;9.44;80.72;98300.25;8520648;33;20550;-73
2021/01/29 18:26:22;;;;;;;9.02;4.85;;;;;;;9.38;80.82;98297.31;8504398;33;20181;-73
2021/01/29 18:31:29;;;;;;;12.38;3.78;;;;;;;9.44;80.26;98305.59;8506717;33;20527;-73
2021/01/29 18:36:34;;;;;;;8.85;4.75;;;;;;;9.33;80.12;98293.28;8505887;33;20168;-73
2021/01/29 18:41:38;;;;;;;17.55;4.80;;;;;;;9.39;79.71;98299.03;8510188;33;20245;-73
2021/01/29 18:46:41;;;;;;;3.92;2.70;;;;;;;9.23;79.64;98319.09;8508338;33;20167;-72
2021/01/29 18:51:44;;;;;;;18.08;5.15;;;;;;;9.56;79.16;98317.72;8505618;33;20466;-73
2021/01/29 18:56:48;;;;;;;16.25;5.35;;;;;;;9.44;79.66;98308.25;8500860;33;20247;-72
2021/01/29 19:01:51;;;;;;;18.27;5.43;;;;;;;9.38;79.79;98318.63;8502342;33;20561;-72
2021/01/29 19:06:53;;;;;;;19.25;5.63;;;;;;;9.55;79.54;98307.22;8495846;33;20431;-72
2021/01/29 19:11:56;;;;;;;13.80;5.70;;;;;;;9.38;80.57;98316.84;8487756;33;20195;-72
2021/01/29 19:16:59;;;;;;;16.50;5.90;;;;;;;9.17;82.21;98303.72;8484041;33;20441;-72
2021/01/29 19:22:02;;;;;;;17.80;5.32;;;;;;;9.33;80.82;98303.09;8483725;33;20287;-72
2021/01/29 19:27:07;;;;;;;23.52;8.05;;;;;;;9.42;81.25;98299.56;8484915;33;20151;-72
2021/01/29 19:32:09;;;;;;;17.20;7.03;;;;;;;9.41;81.21;98310.38;8481445;33;21493;-72
2021/01/29 19:37:12;;;;;;;13.40;4.82;;;;;;;9.16;81.73;98302.03;8489470;33;20446;-72
2021/01/29 19:42:15;;;;;;;20.50;6.57;;;;;;;9.18;82.55;98299.22;8486910;33;20689;-73
2021/01/29 19:47:18;;;;;;;9.88;4.65;;;;;;;8.93;84.28;98306.84;8487814;33;20429;-72
2021/01/29 19:52:22;;;;;;;18.25;5.07;;;;;;;8.90;84.49;98310.63;8494368;33;20160;-73
2021/01/29 19:57:27;;;;;;;16.48;5.70;;;;;;;8.96;83.99;98306.53;8489827;33;20188;-73
2021/01/29 20:02:29;;;;;;;18.40;7.18;;;;;;;9.06;84.13;98293.22;8490037;33;20485;-72
2021/01/29 20:07:32;;;;;;;14.98;5.82;;;;;;;9.09;82.78;98299.09;8491400;33;20611;-72
2021/01/29 20:12:35;;;;;;;18.05;6.15;;;;;;;8.85;83.08;98285.41;8490026;33;20306;-72
2021/01/29 20:17:38;;;;;;;17.30;6.82;;;;;;;9.06;82.96;98290.56;8487386;33;20472;-72
2021/01/29 20:22:41;;;;;;;20.80;7.07;;;;;;;9.19;82.22;98288.44;8489758;33;20463;-72
2021/01/29 20:27:45;;;;;;;13.80;5.60;;;;;;;8.99;82.39;98292.09;8507667;33;21164;-72
2021/01/29 20:32:48;;;;;;;17.15;6.93;;;;;;;9.09;82.17;98304.41;8482343;33;20474;-72
2021/01/29 20:37:51;;;;;;;22.10;7.95;;;;;;;9.05;82.95;98300.38;8480986;33;20149;-73
2021/01/29 20:42:54;;;;;;;16.67;7.25;;;;;;;9.03;83.61;98290.84;8480196;33;20409;-72
2021/01/29 20:47:57;;;;;;;19.13;7.88;;;;;;;8.81;84.87;98297.34;8481093;33;20286;-72
2021/01/29 20:53:00;;;;;;;21.70;7.40;;;;;;;8.36;86.49;98309.34;8442988;33;20169;-72
2021/01/29 20:58:05;;;;;;;19.85;7.68;;;;;;;8.74;84.64;98290.88;8426436;33;20749;-72
2021/01/29 21:03:08;;;;;;;16.00;8.02;;;;;;;8.50;84.74;98312.63;8426972;33;20477;-72
2021/01/29 21:08:11;;;;;;;13.50;7.55;;;;;;;8.46;84.96;98315.56;8446912;33;20244;-72
2021/01/29 21:13:17;;;;;;;18.65;6.13;;;;;;;8.30;84.91;98335.69;8440810;33;20450;-71
2021/01/29 21:18:22;;;;;;;11.90;5.82;;;;;;;8.25;83.83;98328.09;8416467;33;20444;-71
2021/01/29 21:23:26;;;;;;;11.43;5.22;;;;;;;8.39;83.18;98343.72;8439771;33;21036;-71
2021/01/29 21:28:29;;;;;;;8.93;3.30;;;;;;;8.15;82.53;98357.38;8452875;33;20522;-71
2021/01/29 21:33:32;;;;;;;5.22;2.65;;;;;;;7.99;82.54;98362.34;8451438;33;20982;-71
2021/01/29 21:38:38;;;;;;;6.85;3.67;;;;;;;8.26;82.46;98350.25;8443683;33;20188;-71
2021/01/29 21:43:42;;;;;;;8.18;3.78;;;;;;;8.02;84.05;98354.94;8418701;33;20184;-71
2021/01/29 21:48:44;;;;;;;9.00;3.90;;;;;;;8.13;84.08;98377.09;8418146;33;20535;-71
2021/01/29 21:53:46;;;;;;;6.55;3.05;;;;;;;7.98;84.22;98364.19;8417216;33;21904;-71
2021/01/29 21:58:49;;;;;;;6.20;3.63;;;;;;;8.08;84.94;98368.69;8416045;33;20209;-72
2021/01/29 22:03:52;;;;;;;6.68;3.72;;;;;;;8.01;84.95;98384.34;8417064;33;21071;-72
2021/01/29 22:08:54;;;;;;;5.45;3.95;;;;;;;8.07;84.70;98393.59;8438621;33;20145;-72
2021/01/29 22:13:58;;;;;;;6.68;4.38;;;;;;;8.18;84.38;98394.31;8417213;33;20204;-71
2021/01/29 22:19:00;;;;;;;6.93;3.85;;;;;;;8.04;84.83;98400.03;8416948;33;21824;-72
2021/01/29 22:24:03;;;;;;;5.75;2.97;;;;;;;8.47;82.54;98446.78;8416884;33;20516;-72
2021/01/29 22:29:06;;;;;;;3.85;3.10;;;;;;;7.60;81.29;98465.00;8402589;33;20184;-72
2021/01/29 22:34:09;;;;;;;6.38;4.03;;;;;;;6.94;82.28;98478.47;8398128;33;20555;-71
2021/01/29 22:39:11;;;;;;;4.43;3.40;;;;;;;6.82;82.54;98497.09;8401942;33;20181;-72
2021/01/29 22:44:14;;;;;;;6.03;3.88;;;;;;;6.60;82.76;98513.06;8421709;33;20189;-71
2021/01/29 22:49:17;;;;;;;8.98;4.68;;;;;;;6.60;82.86;98524.53;8419172;33;20449;-72
2021/01/29 22:54:19;;;;;;;10.75;6.45;;;;;;;6.51;82.46;98545.66;8419159;33;20838;-71
2021/01/29 22:59:23;;;;;;;11.97;6.63;;;;;;;6.21;82.07;98552.41;8410862;33;20671;-71
2021/01/29 23:04:25;;;;;;;11.40;6.45;;;;;;;5.86;81.91;98577.13;8398157;33;20523;-72
2021/01/29 23:09:28;;;;;;;10.03;5.30;;;;;;;5.50;81.69;98604.59;8404918;33;20173;-71
2021/01/29 23:14:32;;;;;;;7.82;5.00;;;;;;;5.26;81.90;98613.38;8407620;33;20210;-71
2021/01/29 23:19:35;;;;;;;8.27;5.15;;;;;;;5.03;81.48;98624.81;8419229;33;20911;-71
2021/01/29 23:24:38;;;;;;;7.33;5.00;;;;;;;4.72;81.39;98634.94;8406940;33;20542;-71
2021/01/29 23:29:41;;;;;;;8.10;4.87;;;;;;;4.53;81.72;98650.41;8421262;33;20454;-71
2021/01/29 23:34:43;;;;;;;7.37;4.77;;;;;;;4.51;81.96;98654.97;8435827;33;20801;-71
2021/01/29 23:39:45;;;;;;;11.93;6.10;;;;;;;4.44;81.59;98670.38;8454005;33;20149;-71
2021/01/29 23:44:50;;;;;;;12.50;6.60;;;;;;;4.18;81.79;98677.47;8443495;33;21312;-71
2021/01/29 23:49:52;;;;;;;12.57;7.57;;;;;;;4.01;81.59;98695.31;8525006;34;20562;-71
2021/01/29 23:54:55;;;;;;;18.67;8.80;;;;;;;4.00;81.23;98717.41;8447497;33;20455;-71
2021/01/29 23:59:58;;;;;;;16.67;8.63;;;;;;;4.08;81.07;98718.66;8390950;33;20427;-70
